THY352 LTFM-UAAA
Flight info
| Callsign | THY352 |
|---|---|
| Flight time | 5h 6m |
| Altitude | 31000 |
| Route | EKAWE1H/18 EKAWE UT641 ERMUP UP975 ERGUN/N0455F330 UW71 CRM UM11 REBLO M11 MATAL T916 BALUN/K0833F330 T916 MNK/K0832F350 T916 TUROK L855 TIPSA TIPSA1X |
| Aircraft | A321/M-SDE3FGHIRWY/LB1 |
Departure
| Time | 2026-04-24 09:25 |
|---|---|
| Airport | İstanbul Airport (LTFM) |
Arrival
| Time | 2026-04-24 14:31 |
|---|---|
| Airport | Almaty International Airport (UAAA) |
| Time | Latitude | Longitude | Altitude | Speed | Heading |
|---|---|---|---|---|---|
| 2026-04-24 08:44 | 41.26745 | 28.75028 | 334 ft | 0 kts | 271° |
| 2026-04-24 09:09 | 41.26745 | 28.75048 | 334 ft | 4 kts | 273° |
| 2026-04-24 09:09 | 41.26742 | 28.75084 | 334 ft | 4 kts | 278° |
| 2026-04-24 09:10 | 41.26737 | 28.75119 | 334 ft | 4 kts | 290° |
| 2026-04-24 09:10 | 41.26725 | 28.75148 | 334 ft | 4 kts | 326° |
| 2026-04-24 09:10 | 41.26712 | 28.75155 | 334 ft | 1 kts | 359° |
| 2026-04-24 09:10 | 41.26710 | 28.75155 | 334 ft | 1 kts | 359° |
| 2026-04-24 09:11 | 41.26709 | 28.75155 | 334 ft | 0 kts | 359° |
| 2026-04-24 09:17 | 41.26720 | 28.75155 | 334 ft | 4 kts | 359° |
| 2026-04-24 09:17 | 41.26756 | 28.75154 | 334 ft | 7 kts | 359° |
| 2026-04-24 09:18 | 41.26821 | 28.75153 | 334 ft | 10 kts | 359° |
| 2026-04-24 09:18 | 41.26894 | 28.75151 | 334 ft | 11 kts | 359° |
| 2026-04-24 09:18 | 41.26969 | 28.75149 | 334 ft | 11 kts | 359° |
| 2026-04-24 09:18 | 41.27045 | 28.75148 | 334 ft | 11 kts | 359° |
| 2026-04-24 09:19 | 41.27122 | 28.75148 | 334 ft | 11 kts | 8° |
| 2026-04-24 09:19 | 41.27159 | 28.75226 | 334 ft | 11 kts | 84° |
| 2026-04-24 09:19 | 41.27161 | 28.75325 | 334 ft | 11 kts | 78° |
| 2026-04-24 09:19 | 41.27220 | 28.75367 | 334 ft | 11 kts | 2° |
| 2026-04-24 09:20 | 41.27300 | 28.75365 | 334 ft | 12 kts | 358° |
| 2026-04-24 09:20 | 41.27411 | 28.75362 | 334 ft | 12 kts | 360° |
| 2026-04-24 09:20 | 41.27467 | 28.75362 | 334 ft | 12 kts | 360° |
| 2026-04-24 09:20 | 41.27570 | 28.75361 | 334 ft | 18 kts | 360° |
| 2026-04-24 09:21 | 41.27700 | 28.75358 | 334 ft | 19 kts | 359° |
| 2026-04-24 09:21 | 41.27834 | 28.75354 | 334 ft | 20 kts | 359° |
| 2026-04-24 09:21 | 41.27972 | 28.75349 | 334 ft | 20 kts | 358° |
| 2026-04-24 09:21 | 41.28109 | 28.75347 | 334 ft | 20 kts | 359° |
| 2026-04-24 09:22 | 41.28260 | 28.75345 | 334 ft | 23 kts | 359° |
| 2026-04-24 09:22 | 41.28422 | 28.75340 | 334 ft | 23 kts | 359° |
| 2026-04-24 09:22 | 41.28580 | 28.75337 | 334 ft | 23 kts | 359° |
| 2026-04-24 09:22 | 41.28736 | 28.75333 | 334 ft | 20 kts | 359° |
| 2026-04-24 09:23 | 41.28811 | 28.75377 | 334 ft | 10 kts | 71° |
| 2026-04-24 09:23 | 41.28818 | 28.75474 | 334 ft | 11 kts | 88° |
| 2026-04-24 09:23 | 41.28817 | 28.75573 | 334 ft | 11 kts | 92° |
| 2026-04-24 09:23 | 41.28762 | 28.75618 | 334 ft | 10 kts | 179° |
| 2026-04-24 09:24 | 41.28686 | 28.75620 | 334 ft | 15 kts | 179° |
| 2026-04-24 09:24 | 41.28372 | 28.75625 | 334 ft | 80 kts | 179° |
| 2026-04-24 09:24 | 41.27600 | 28.75641 | 334 ft | 139 kts | 179° |
| 2026-04-24 09:24 | 41.26470 | 28.75662 | 440 ft | 177 kts | 179° |
| 2026-04-24 09:25 | 41.25289 | 28.75751 | 1255 ft | 169 kts | 166° |
| 2026-04-24 09:25 | 41.24314 | 28.76608 | 1780 ft | 173 kts | 136° |
| 2026-04-24 09:25 | 41.23406 | 28.77788 | 1961 ft | 193 kts | 136° |
| 2026-04-24 09:25 | 41.22314 | 28.78990 | 2100 ft | 215 kts | 145° |
| 2026-04-24 09:26 | 41.20998 | 28.80156 | 2211 ft | 240 kts | 148° |
| 2026-04-24 09:26 | 41.19539 | 28.81415 | 2500 ft | 259 kts | 142° |
| 2026-04-24 09:26 | 41.18466 | 28.83333 | 3016 ft | 265 kts | 107° |
| 2026-04-24 09:26 | 41.18264 | 28.85772 | 3589 ft | 269 kts | 90° |
| 2026-04-24 09:27 | 41.18275 | 28.88271 | 4217 ft | 273 kts | 89° |
| 2026-04-24 09:27 | 41.18368 | 28.90800 | 4864 ft | 276 kts | 79° |
| 2026-04-24 09:27 | 41.19056 | 28.93174 | 5429 ft | 279 kts | 57° |
| 2026-04-24 09:27 | 41.20132 | 28.95329 | 5998 ft | 282 kts | 56° |
| 2026-04-24 09:28 | 41.21236 | 28.97506 | 6562 ft | 284 kts | 56° |
| 2026-04-24 09:28 | 41.22346 | 28.99696 | 7117 ft | 287 kts | 56° |
| 2026-04-24 09:28 | 41.23463 | 29.01906 | 7673 ft | 290 kts | 56° |
| 2026-04-24 09:28 | 41.24594 | 29.04142 | 8193 ft | 292 kts | 56° |
| 2026-04-24 09:29 | 41.25734 | 29.06399 | 8700 ft | 295 kts | 56° |
| 2026-04-24 09:29 | 41.26878 | 29.08669 | 9188 ft | 297 kts | 56° |
| 2026-04-24 09:29 | 41.28035 | 29.10967 | 9654 ft | 300 kts | 56° |
| 2026-04-24 09:29 | 41.29200 | 29.13281 | 10077 ft | 304 kts | 56° |
| 2026-04-24 09:30 | 41.30411 | 29.15689 | 10197 ft | 319 kts | 56° |
| 2026-04-24 09:30 | 41.32103 | 29.19065 | 10366 ft | 337 kts | 56° |
| 2026-04-24 09:30 | 41.32975 | 29.20812 | 10451 ft | 346 kts | 56° |
| 2026-04-24 09:30 | 41.34326 | 29.23520 | 10578 ft | 358 kts | 56° |
| 2026-04-24 09:31 | 41.35728 | 29.26325 | 10706 ft | 369 kts | 56° |
| 2026-04-24 09:31 | 41.37170 | 29.29206 | 10833 ft | 379 kts | 56° |
| 2026-04-24 09:31 | 41.38649 | 29.32165 | 10960 ft | 389 kts | 56° |
| 2026-04-24 09:31 | 41.40164 | 29.35202 | 11089 ft | 398 kts | 56° |
| 2026-04-24 09:32 | 41.41703 | 29.38291 | 11336 ft | 402 kts | 56° |
| 2026-04-24 09:32 | 41.43256 | 29.41413 | 11649 ft | 405 kts | 56° |
| 2026-04-24 09:32 | 41.44817 | 29.44550 | 11972 ft | 407 kts | 56° |
| 2026-04-24 09:32 | 41.46385 | 29.47706 | 12287 ft | 409 kts | 57° |
| 2026-04-24 09:33 | 41.47962 | 29.50884 | 12599 ft | 412 kts | 56° |
| 2026-04-24 09:33 | 41.49544 | 29.54070 | 12902 ft | 414 kts | 56° |
| 2026-04-24 09:33 | 41.51136 | 29.57279 | 13195 ft | 416 kts | 56° |
| 2026-04-24 09:33 | 41.52736 | 29.60508 | 13480 ft | 418 kts | 57° |
| 2026-04-24 09:34 | 41.54338 | 29.63750 | 13762 ft | 420 kts | 57° |
| 2026-04-24 09:34 | 41.55948 | 29.67012 | 14032 ft | 422 kts | 57° |
| 2026-04-24 09:34 | 41.57564 | 29.70290 | 14295 ft | 424 kts | 57° |
| 2026-04-24 09:34 | 41.59191 | 29.73597 | 14558 ft | 426 kts | 57° |
| 2026-04-24 09:35 | 41.60819 | 29.76908 | 14819 ft | 427 kts | 57° |
| 2026-04-24 09:35 | 41.62454 | 29.80234 | 15072 ft | 429 kts | 57° |
| 2026-04-24 09:35 | 41.64096 | 29.83576 | 15319 ft | 431 kts | 57° |
| 2026-04-24 09:35 | 41.65744 | 29.86934 | 15558 ft | 433 kts | 57° |
| 2026-04-24 09:36 | 41.67399 | 29.90310 | 15784 ft | 434 kts | 57° |
| 2026-04-24 09:36 | 41.69058 | 29.93698 | 16001 ft | 436 kts | 57° |
| 2026-04-24 09:36 | 41.70720 | 29.97096 | 16207 ft | 438 kts | 57° |
| 2026-04-24 09:36 | 41.72371 | 30.00481 | 16401 ft | 439 kts | 57° |
| 2026-04-24 09:37 | 41.74045 | 30.03911 | 16591 ft | 440 kts | 57° |
| 2026-04-24 09:37 | 41.75724 | 30.07351 | 16771 ft | 442 kts | 57° |
| 2026-04-24 09:37 | 41.77406 | 30.10805 | 16941 ft | 443 kts | 57° |
| 2026-04-24 09:37 | 41.79086 | 30.14266 | 17097 ft | 445 kts | 57° |
| 2026-04-24 09:38 | 41.80776 | 30.17750 | 17253 ft | 446 kts | 57° |
| 2026-04-24 09:38 | 41.82469 | 30.21241 | 17403 ft | 447 kts | 57° |
| 2026-04-24 09:38 | 41.84163 | 30.24738 | 17544 ft | 448 kts | 57° |
| 2026-04-24 09:38 | 41.85862 | 30.28246 | 17682 ft | 449 kts | 57° |
| 2026-04-24 09:39 | 41.87563 | 30.31756 | 17810 ft | 450 kts | 57° |
| 2026-04-24 09:39 | 41.89275 | 30.35297 | 17944 ft | 451 kts | 57° |
| 2026-04-24 09:39 | 41.90983 | 30.38832 | 18068 ft | 452 kts | 57° |
| 2026-04-24 09:39 | 41.92692 | 30.42376 | 18193 ft | 452 kts | 57° |
| 2026-04-24 09:40 | 41.94400 | 30.45932 | 18319 ft | 453 kts | 57° |
| 2026-04-24 09:40 | 41.96104 | 30.49482 | 18444 ft | 453 kts | 57° |
| 2026-04-24 09:40 | 41.97705 | 30.53135 | 18563 ft | 454 kts | 64° |
| 2026-04-24 09:40 | 41.98881 | 30.57061 | 18688 ft | 454 kts | 73° |
| 2026-04-24 09:41 | 41.99601 | 30.61193 | 18813 ft | 453 kts | 82° |
| 2026-04-24 09:41 | 41.99845 | 30.65412 | 18939 ft | 453 kts | 90° |
| 2026-04-24 09:41 | 41.99864 | 30.69646 | 19066 ft | 453 kts | 90° |
| 2026-04-24 09:41 | 41.99891 | 30.73941 | 19192 ft | 453 kts | 90° |
| 2026-04-24 09:42 | 41.99922 | 30.78177 | 19317 ft | 453 kts | 90° |
| 2026-04-24 09:42 | 41.99953 | 30.82412 | 19441 ft | 453 kts | 90° |
| 2026-04-24 09:42 | 41.99981 | 30.86592 | 19563 ft | 453 kts | 90° |
| 2026-04-24 09:42 | 42.00002 | 30.90831 | 19688 ft | 453 kts | 90° |
| 2026-04-24 09:43 | 42.00022 | 30.95062 | 19813 ft | 453 kts | 90° |
| 2026-04-24 09:43 | 41.99989 | 30.99300 | 19936 ft | 452 kts | 94° |
| 2026-04-24 09:43 | 41.99554 | 31.03475 | 20060 ft | 452 kts | 103° |
| 2026-04-24 09:43 | 41.98664 | 31.07517 | 20186 ft | 451 kts | 110° |
| 2026-04-24 09:44 | 41.97596 | 31.11472 | 20311 ft | 450 kts | 110° |
| 2026-04-24 09:44 | 41.96529 | 31.15443 | 20436 ft | 450 kts | 110° |
| 2026-04-24 09:44 | 41.95471 | 31.19388 | 20560 ft | 450 kts | 110° |
| 2026-04-24 09:44 | 41.94412 | 31.23337 | 20685 ft | 449 kts | 110° |
| 2026-04-24 09:45 | 41.93350 | 31.27283 | 20810 ft | 449 kts | 110° |
| 2026-04-24 09:45 | 41.92287 | 31.31229 | 20934 ft | 448 kts | 110° |
| 2026-04-24 09:45 | 41.91227 | 31.35165 | 21059 ft | 448 kts | 110° |
| 2026-04-24 09:45 | 41.90166 | 31.39092 | 21183 ft | 447 kts | 110° |
| 2026-04-24 09:46 | 41.89118 | 31.42967 | 21306 ft | 447 kts | 110° |
| 2026-04-24 09:46 | 41.88053 | 31.46887 | 21432 ft | 446 kts | 110° |
| 2026-04-24 09:46 | 41.86989 | 31.50787 | 21556 ft | 446 kts | 110° |
| 2026-04-24 09:46 | 41.85982 | 31.54482 | 21675 ft | 445 kts | 110° |
| 2026-04-24 09:47 | 41.85161 | 31.57494 | 22005 ft | 442 kts | 110° |
| 2026-04-24 09:47 | 41.84108 | 31.61356 | 22522 ft | 440 kts | 110° |
| 2026-04-24 09:47 | 41.83057 | 31.65213 | 22891 ft | 442 kts | 110° |
| 2026-04-24 09:47 | 41.81998 | 31.69088 | 23229 ft | 443 kts | 110° |
| 2026-04-24 09:48 | 41.80938 | 31.72975 | 23533 ft | 445 kts | 108° |
| 2026-04-24 09:48 | 41.80292 | 31.77035 | 23836 ft | 447 kts | 97° |
| 2026-04-24 09:48 | 41.79900 | 31.81171 | 24137 ft | 449 kts | 97° |
| 2026-04-24 09:48 | 41.79513 | 31.85335 | 24442 ft | 451 kts | 97° |
| 2026-04-24 09:49 | 41.79132 | 31.89513 | 24736 ft | 453 kts | 97° |
| 2026-04-24 09:49 | 41.78749 | 31.93718 | 25035 ft | 455 kts | 97° |
| 2026-04-24 09:49 | 41.78363 | 31.97928 | 25370 ft | 455 kts | 97° |
| 2026-04-24 09:49 | 41.77974 | 32.02148 | 25792 ft | 454 kts | 97° |
| 2026-04-24 09:50 | 41.77586 | 32.06335 | 26200 ft | 453 kts | 97° |
| 2026-04-24 09:50 | 41.77193 | 32.10527 | 26603 ft | 452 kts | 97° |
| 2026-04-24 09:50 | 41.76802 | 32.14697 | 26978 ft | 451 kts | 97° |
| 2026-04-24 09:50 | 41.76409 | 32.18865 | 27355 ft | 451 kts | 97° |
| 2026-04-24 09:51 | 41.76016 | 32.23026 | 27723 ft | 450 kts | 97° |
| 2026-04-24 09:51 | 41.75622 | 32.27188 | 28094 ft | 449 kts | 97° |
| 2026-04-24 09:51 | 41.75227 | 32.31327 | 28453 ft | 448 kts | 97° |
| 2026-04-24 09:51 | 41.74828 | 32.35463 | 28804 ft | 448 kts | 97° |
| 2026-04-24 09:52 | 41.74562 | 32.38202 | 29030 ft | 447 kts | 97° |
| 2026-04-24 09:52 | 41.74161 | 32.42325 | 29367 ft | 447 kts | 97° |
| 2026-04-24 09:52 | 41.73757 | 32.46453 | 29675 ft | 447 kts | 97° |
| 2026-04-24 09:52 | 41.73353 | 32.50579 | 29934 ft | 448 kts | 97° |
| 2026-04-24 09:53 | 41.72951 | 32.54715 | 30203 ft | 448 kts | 97° |
| 2026-04-24 09:53 | 41.72548 | 32.58855 | 30505 ft | 448 kts | 97° |
| 2026-04-24 09:53 | 41.72145 | 32.62987 | 30733 ft | 449 kts | 97° |
| 2026-04-24 09:53 | 41.71736 | 32.67133 | 30942 ft | 449 kts | 97° |
| 2026-04-24 09:54 | 41.70910 | 32.75435 | 31009 ft | 452 kts | 97° |
| 2026-04-24 09:54 | 41.70073 | 32.83785 | 31008 ft | 452 kts | 97° |
| 2026-04-24 09:55 | 41.69231 | 32.92110 | 31009 ft | 452 kts | 97° |
| 2026-04-24 09:55 | 41.68387 | 33.00452 | 31009 ft | 452 kts | 97° |
| 2026-04-24 09:56 | 41.67537 | 33.08758 | 31003 ft | 451 kts | 98° |
| 2026-04-24 09:56 | 41.66677 | 33.17065 | 31009 ft | 451 kts | 98° |
| 2026-04-24 09:57 | 41.65815 | 33.25376 | 31003 ft | 451 kts | 98° |
| 2026-04-24 09:57 | 41.64945 | 33.33712 | 31001 ft | 453 kts | 98° |
| 2026-04-24 09:58 | 41.64070 | 33.42057 | 31004 ft | 453 kts | 98° |
| 2026-04-24 09:58 | 41.63179 | 33.50401 | 31006 ft | 454 kts | 98° |
| 2026-04-24 09:59 | 41.62296 | 33.58706 | 31010 ft | 454 kts | 98° |
| 2026-04-24 09:59 | 41.61849 | 33.62887 | 31140 ft | 455 kts | 98° |
| 2026-04-24 09:59 | 41.61393 | 33.67125 | 31372 ft | 451 kts | 98° |
| 2026-04-24 10:00 | 41.60950 | 33.71221 | 31970 ft | 444 kts | 98° |
| 2026-04-24 10:00 | 41.60516 | 33.75188 | 32754 ft | 424 kts | 98° |
| 2026-04-24 10:00 | 41.60096 | 33.79023 | 33448 ft | 416 kts | 98° |
| 2026-04-24 10:00 | 41.59681 | 33.82826 | 33742 ft | 412 kts | 98° |
| 2026-04-24 10:01 | 41.59267 | 33.86618 | 33985 ft | 411 kts | 98° |
| 2026-04-24 10:01 | 41.58854 | 33.90390 | 34166 ft | 411 kts | 98° |
| 2026-04-24 10:01 | 41.58436 | 33.94179 | 34290 ft | 413 kts | 98° |
| 2026-04-24 10:01 | 41.58015 | 33.97991 | 34328 ft | 416 kts | 98° |
| 2026-04-24 10:02 | 41.57146 | 34.05732 | 34323 ft | 426 kts | 98° |
| 2026-04-24 10:02 | 41.56263 | 34.13632 | 34492 ft | 430 kts | 98° |
| 2026-04-24 10:03 | 41.55824 | 34.17571 | 34742 ft | 429 kts | 98° |
| 2026-04-24 10:03 | 41.55383 | 34.21503 | 34946 ft | 428 kts | 98° |
| 2026-04-24 10:03 | 41.54486 | 34.29419 | 35017 ft | 435 kts | 98° |
| 2026-04-24 10:04 | 41.53565 | 34.37488 | 35011 ft | 444 kts | 98° |
| 2026-04-24 10:04 | 41.52629 | 34.45692 | 35016 ft | 448 kts | 98° |
| 2026-04-24 10:05 | 41.51683 | 34.53912 | 35008 ft | 448 kts | 99° |
| 2026-04-24 10:05 | 41.50726 | 34.62113 | 35012 ft | 447 kts | 99° |
| 2026-04-24 10:06 | 41.49291 | 34.74389 | 35025 ft | 446 kts | 99° |
| 2026-04-24 10:07 | 41.48327 | 34.82551 | 35032 ft | 445 kts | 99° |
| 2026-04-24 10:07 | 41.47357 | 34.90695 | 35032 ft | 444 kts | 99° |
| 2026-04-24 10:08 | 41.46378 | 34.98835 | 35029 ft | 444 kts | 99° |
| 2026-04-24 10:08 | 41.45399 | 35.06966 | 35027 ft | 445 kts | 99° |
| 2026-04-24 10:09 | 41.44413 | 35.15106 | 35027 ft | 445 kts | 99° |
| 2026-04-24 10:09 | 41.43422 | 35.23247 | 35024 ft | 445 kts | 99° |
| 2026-04-24 10:10 | 41.42422 | 35.31399 | 35015 ft | 446 kts | 99° |
| 2026-04-24 10:10 | 41.41417 | 35.39575 | 35009 ft | 447 kts | 99° |
| 2026-04-24 10:11 | 41.40402 | 35.47762 | 35015 ft | 448 kts | 99° |
| 2026-04-24 10:11 | 41.39378 | 35.55964 | 35021 ft | 448 kts | 99° |
| 2026-04-24 10:12 | 41.38349 | 35.64151 | 35027 ft | 448 kts | 99° |
| 2026-04-24 10:12 | 41.37316 | 35.72328 | 35034 ft | 447 kts | 99° |
| 2026-04-24 10:13 | 41.36282 | 35.80487 | 35037 ft | 446 kts | 99° |
| 2026-04-24 10:13 | 41.35248 | 35.88610 | 35034 ft | 445 kts | 99° |
| 2026-04-24 10:14 | 41.34203 | 35.96728 | 35021 ft | 445 kts | 99° |
| 2026-04-24 10:14 | 41.33153 | 36.04856 | 35021 ft | 446 kts | 99° |
| 2026-04-24 10:15 | 41.32095 | 36.12995 | 35019 ft | 447 kts | 99° |
| 2026-04-24 10:15 | 41.31027 | 36.21146 | 35034 ft | 446 kts | 100° |
| 2026-04-24 10:16 | 41.29963 | 36.29258 | 35040 ft | 445 kts | 100° |
| 2026-04-24 10:16 | 41.28897 | 36.37351 | 35039 ft | 444 kts | 100° |
| 2026-04-24 10:17 | 41.27827 | 36.45366 | 35036 ft | 443 kts | 100° |
| 2026-04-24 10:17 | 41.26744 | 36.53420 | 35035 ft | 442 kts | 100° |
| 2026-04-24 10:18 | 41.25890 | 36.61501 | 35033 ft | 442 kts | 96° |
| 2026-04-24 10:18 | 41.25374 | 36.69688 | 35034 ft | 442 kts | 94° |
| 2026-04-24 10:19 | 41.24881 | 36.77774 | 35032 ft | 441 kts | 95° |
| 2026-04-24 10:19 | 41.24294 | 36.85909 | 35031 ft | 441 kts | 96° |
| 2026-04-24 10:20 | 41.23655 | 36.94018 | 35031 ft | 441 kts | 96° |
| 2026-04-24 10:20 | 41.23019 | 37.02129 | 35031 ft | 441 kts | 96° |
| 2026-04-24 10:21 | 41.22397 | 37.10242 | 35031 ft | 441 kts | 96° |
| 2026-04-24 10:21 | 41.21765 | 37.18360 | 35031 ft | 441 kts | 96° |
| 2026-04-24 10:22 | 41.21137 | 37.26464 | 35031 ft | 441 kts | 96° |
| 2026-04-24 10:22 | 41.20547 | 37.34582 | 35031 ft | 441 kts | 95° |
| 2026-04-24 10:23 | 41.19966 | 37.42695 | 35031 ft | 441 kts | 95° |
| 2026-04-24 10:23 | 41.19360 | 37.50809 | 35031 ft | 441 kts | 96° |
| 2026-04-24 10:24 | 41.18768 | 37.58920 | 35031 ft | 441 kts | 94° |
| 2026-04-24 10:24 | 41.18283 | 37.67041 | 35031 ft | 441 kts | 95° |
| 2026-04-24 10:25 | 41.17639 | 37.75142 | 35030 ft | 441 kts | 96° |
| 2026-04-24 10:25 | 41.16909 | 37.83235 | 35030 ft | 441 kts | 97° |
| 2026-04-24 10:26 | 41.16188 | 37.91317 | 35030 ft | 441 kts | 96° |
| 2026-04-24 10:26 | 41.15539 | 37.99422 | 35031 ft | 441 kts | 96° |
| 2026-04-24 10:27 | 41.14917 | 38.07515 | 35030 ft | 441 kts | 96° |
| 2026-04-24 10:27 | 41.14274 | 38.15610 | 35031 ft | 441 kts | 96° |
| 2026-04-24 10:28 | 41.13601 | 38.23703 | 35030 ft | 441 kts | 96° |
| 2026-04-24 10:28 | 41.12927 | 38.31791 | 35029 ft | 441 kts | 96° |
| 2026-04-24 10:29 | 41.12264 | 38.39882 | 35029 ft | 441 kts | 96° |
| 2026-04-24 10:29 | 41.11595 | 38.47965 | 35030 ft | 441 kts | 96° |
| 2026-04-24 10:30 | 41.10914 | 38.56046 | 35029 ft | 441 kts | 96° |
| 2026-04-24 10:30 | 41.10223 | 38.64133 | 35029 ft | 441 kts | 96° |
| 2026-04-24 10:31 | 41.09515 | 38.72211 | 35028 ft | 441 kts | 97° |
| 2026-04-24 10:31 | 41.08790 | 38.80283 | 35028 ft | 441 kts | 97° |
| 2026-04-24 10:32 | 41.08182 | 38.86985 | 35028 ft | 441 kts | 97° |
| 2026-04-24 10:32 | 41.07446 | 38.95054 | 35029 ft | 441 kts | 97° |
| 2026-04-24 10:33 | 41.06706 | 39.03127 | 35029 ft | 441 kts | 97° |
| 2026-04-24 10:33 | 41.05962 | 39.11190 | 35029 ft | 441 kts | 97° |
| 2026-04-24 10:34 | 41.05215 | 39.19257 | 35026 ft | 441 kts | 97° |
| 2026-04-24 10:34 | 41.04474 | 39.27329 | 35029 ft | 441 kts | 97° |
| 2026-04-24 10:35 | 41.03732 | 39.35404 | 35026 ft | 441 kts | 97° |
| 2026-04-24 10:35 | 41.02977 | 39.43481 | 35020 ft | 442 kts | 97° |
| 2026-04-24 10:36 | 41.02215 | 39.51566 | 35020 ft | 443 kts | 97° |
| 2026-04-24 10:36 | 41.01448 | 39.59661 | 35030 ft | 443 kts | 97° |
| 2026-04-24 10:37 | 41.00678 | 39.67746 | 35034 ft | 442 kts | 97° |
| 2026-04-24 10:37 | 40.99892 | 39.75811 | 35033 ft | 442 kts | 97° |
| 2026-04-24 10:38 | 40.99430 | 39.83903 | 35032 ft | 441 kts | 91° |
| 2026-04-24 10:38 | 40.99245 | 39.92018 | 35031 ft | 441 kts | 92° |
| 2026-04-24 10:39 | 40.99044 | 40.00123 | 35030 ft | 441 kts | 92° |
| 2026-04-24 10:39 | 40.98845 | 40.08229 | 35030 ft | 441 kts | 92° |
| 2026-04-24 10:40 | 40.98637 | 40.16331 | 35030 ft | 440 kts | 92° |
| 2026-04-24 10:40 | 40.98422 | 40.24446 | 35031 ft | 441 kts | 92° |
| 2026-04-24 10:41 | 40.98203 | 40.32550 | 35031 ft | 441 kts | 92° |
| 2026-04-24 10:41 | 40.97975 | 40.40654 | 35028 ft | 441 kts | 92° |
| 2026-04-24 10:42 | 40.97740 | 40.48771 | 35023 ft | 441 kts | 92° |
| 2026-04-24 10:42 | 40.97502 | 40.56884 | 35023 ft | 442 kts | 92° |
| 2026-04-24 10:43 | 40.97263 | 40.65016 | 35023 ft | 442 kts | 92° |
| 2026-04-24 10:43 | 40.97013 | 40.73153 | 35006 ft | 443 kts | 92° |
| 2026-04-24 10:44 | 40.96756 | 40.81319 | 35013 ft | 444 kts | 92° |
| 2026-04-24 10:44 | 40.96498 | 40.89485 | 35002 ft | 445 kts | 92° |
| 2026-04-24 10:45 | 40.96235 | 40.97675 | 35003 ft | 446 kts | 92° |
| 2026-04-24 10:45 | 40.95953 | 41.05886 | 34987 ft | 448 kts | 92° |
| 2026-04-24 10:46 | 40.95652 | 41.14132 | 34999 ft | 449 kts | 92° |
| 2026-04-24 10:46 | 40.95361 | 41.22388 | 34982 ft | 451 kts | 92° |
| 2026-04-24 10:47 | 40.95072 | 41.30708 | 34996 ft | 453 kts | 92° |
| 2026-04-24 10:47 | 40.94764 | 41.39040 | 35023 ft | 454 kts | 93° |
| 2026-04-24 10:48 | 40.94454 | 41.47376 | 35036 ft | 453 kts | 93° |
| 2026-04-24 10:48 | 40.94140 | 41.55685 | 35033 ft | 452 kts | 93° |
| 2026-04-24 10:49 | 40.93817 | 41.63970 | 35029 ft | 451 kts | 93° |
| 2026-04-24 10:49 | 40.93494 | 41.72265 | 35023 ft | 452 kts | 93° |
| 2026-04-24 10:50 | 40.93175 | 41.80549 | 35030 ft | 451 kts | 93° |
| 2026-04-24 10:50 | 40.92829 | 41.88824 | 35026 ft | 450 kts | 93° |
| 2026-04-24 10:51 | 40.92470 | 41.97096 | 34998 ft | 452 kts | 93° |
| 2026-04-24 10:51 | 40.92114 | 42.05390 | 35012 ft | 453 kts | 93° |
| 2026-04-24 10:52 | 40.91762 | 42.13707 | 35011 ft | 453 kts | 93° |
| 2026-04-24 10:52 | 40.91406 | 42.22040 | 35014 ft | 454 kts | 93° |
| 2026-04-24 10:53 | 40.91037 | 42.30380 | 35022 ft | 455 kts | 93° |
| 2026-04-24 10:53 | 40.90652 | 42.38725 | 35025 ft | 455 kts | 93° |
| 2026-04-24 10:54 | 40.90267 | 42.47067 | 35032 ft | 455 kts | 93° |
| 2026-04-24 10:54 | 40.89884 | 42.55414 | 35036 ft | 454 kts | 94° |
| 2026-04-24 10:55 | 40.89487 | 42.63749 | 35033 ft | 454 kts | 94° |
| 2026-04-24 10:55 | 40.89081 | 42.72062 | 35032 ft | 454 kts | 94° |
| 2026-04-24 10:56 | 40.88672 | 42.80384 | 35032 ft | 454 kts | 94° |
| 2026-04-24 10:56 | 40.88268 | 42.88702 | 35027 ft | 453 kts | 94° |
| 2026-04-24 10:57 | 40.87851 | 42.97024 | 35025 ft | 454 kts | 94° |
| 2026-04-24 10:57 | 40.87425 | 43.05345 | 35027 ft | 454 kts | 94° |
| 2026-04-24 10:58 | 40.86989 | 43.13678 | 35022 ft | 455 kts | 94° |
| 2026-04-24 10:58 | 40.86548 | 43.22018 | 35027 ft | 455 kts | 94° |
| 2026-04-24 10:59 | 40.86108 | 43.30351 | 35034 ft | 454 kts | 94° |
| 2026-04-24 10:59 | 40.85665 | 43.38663 | 35038 ft | 453 kts | 94° |
| 2026-04-24 11:00 | 40.85216 | 43.46906 | 35031 ft | 453 kts | 94° |
| 2026-04-24 11:00 | 40.84757 | 43.55201 | 35030 ft | 452 kts | 94° |
| 2026-04-24 11:01 | 40.84294 | 43.63485 | 35029 ft | 452 kts | 94° |
| 2026-04-24 11:01 | 40.83844 | 43.71762 | 35029 ft | 452 kts | 93° |
| 2026-04-24 11:02 | 40.83560 | 43.80052 | 35030 ft | 451 kts | 92° |
| 2026-04-24 11:02 | 40.83346 | 43.88336 | 35030 ft | 451 kts | 92° |
| 2026-04-24 11:03 | 40.83101 | 43.96623 | 35028 ft | 451 kts | 92° |
| 2026-04-24 11:03 | 40.82818 | 44.04906 | 35021 ft | 452 kts | 92° |
| 2026-04-24 11:04 | 40.82516 | 44.13191 | 35022 ft | 452 kts | 92° |
| 2026-04-24 11:04 | 40.82212 | 44.21429 | 35021 ft | 452 kts | 92° |
| 2026-04-24 11:05 | 40.81906 | 44.29771 | 35028 ft | 452 kts | 92° |
| 2026-04-24 11:05 | 40.81611 | 44.38002 | 35022 ft | 452 kts | 92° |
| 2026-04-24 11:06 | 40.81304 | 44.46291 | 35026 ft | 451 kts | 92° |
| 2026-04-24 11:06 | 40.80988 | 44.54563 | 35030 ft | 451 kts | 93° |
| 2026-04-24 11:07 | 40.80490 | 44.66953 | 34995 ft | 452 kts | 93° |
| 2026-04-24 11:07 | 40.80150 | 44.75270 | 35000 ft | 454 kts | 93° |
| 2026-04-24 11:08 | 40.79809 | 44.83594 | 34996 ft | 455 kts | 93° |
| 2026-04-24 11:08 | 40.79467 | 44.91926 | 35024 ft | 454 kts | 93° |
| 2026-04-24 11:09 | 40.79118 | 45.00243 | 35037 ft | 453 kts | 93° |
| 2026-04-24 11:09 | 40.78761 | 45.08521 | 35040 ft | 451 kts | 93° |
| 2026-04-24 11:10 | 40.78401 | 45.16769 | 35025 ft | 450 kts | 93° |
| 2026-04-24 11:10 | 40.78032 | 45.25032 | 35021 ft | 451 kts | 93° |
| 2026-04-24 11:11 | 40.77714 | 45.31898 | 35020 ft | 452 kts | 93° |
| 2026-04-24 11:11 | 40.77327 | 45.40170 | 35029 ft | 452 kts | 94° |
| 2026-04-24 11:12 | 40.76955 | 45.48443 | 35023 ft | 451 kts | 90° |
| 2026-04-24 11:12 | 40.77541 | 45.56659 | 35026 ft | 450 kts | 82° |
| 2026-04-24 11:13 | 40.78399 | 45.64844 | 35030 ft | 450 kts | 82° |
| 2026-04-24 11:13 | 40.79235 | 45.73026 | 35031 ft | 449 kts | 82° |
| 2026-04-24 11:14 | 40.80069 | 45.81192 | 35029 ft | 449 kts | 82° |
| 2026-04-24 11:14 | 40.80908 | 45.89361 | 35037 ft | 449 kts | 82° |
| 2026-04-24 11:15 | 40.81735 | 45.97516 | 35035 ft | 448 kts | 82° |
| 2026-04-24 11:15 | 40.82550 | 46.05653 | 35038 ft | 446 kts | 82° |
| 2026-04-24 11:16 | 40.83354 | 46.13777 | 35036 ft | 445 kts | 82° |
| 2026-04-24 11:16 | 40.84151 | 46.21821 | 35034 ft | 444 kts | 82° |
| 2026-04-24 11:17 | 40.84945 | 46.29919 | 35033 ft | 443 kts | 83° |
| 2026-04-24 11:17 | 40.85719 | 46.37986 | 35031 ft | 443 kts | 83° |
| 2026-04-24 11:18 | 40.86503 | 46.46105 | 35030 ft | 442 kts | 83° |
| 2026-04-24 11:18 | 40.87279 | 46.54110 | 35028 ft | 442 kts | 83° |
| 2026-04-24 11:19 | 40.88056 | 46.62228 | 35029 ft | 442 kts | 83° |
| 2026-04-24 11:19 | 40.88817 | 46.70301 | 35031 ft | 442 kts | 83° |
| 2026-04-24 11:20 | 40.89568 | 46.78371 | 35032 ft | 442 kts | 83° |
| 2026-04-24 11:20 | 40.90683 | 46.86301 | 35030 ft | 442 kts | 76° |
| 2026-04-24 11:21 | 40.92170 | 46.94234 | 35026 ft | 441 kts | 76° |
| 2026-04-24 11:21 | 40.93624 | 47.02068 | 35024 ft | 441 kts | 76° |
| 2026-04-24 11:22 | 40.95074 | 47.09953 | 35023 ft | 441 kts | 76° |
| 2026-04-24 11:22 | 40.96525 | 47.17848 | 35023 ft | 442 kts | 76° |
| 2026-04-24 11:23 | 40.97975 | 47.25755 | 35015 ft | 443 kts | 76° |
| 2026-04-24 11:23 | 40.99423 | 47.33692 | 35016 ft | 444 kts | 76° |
| 2026-04-24 11:24 | 41.00864 | 47.41636 | 35023 ft | 444 kts | 76° |
| 2026-04-24 11:24 | 41.02302 | 47.49592 | 35023 ft | 444 kts | 76° |
| 2026-04-24 11:25 | 41.03733 | 47.57550 | 35021 ft | 444 kts | 76° |
| 2026-04-24 11:25 | 41.05166 | 47.65527 | 35022 ft | 445 kts | 77° |
| 2026-04-24 11:26 | 41.06590 | 47.73511 | 35010 ft | 446 kts | 77° |
| 2026-04-24 11:26 | 41.08009 | 47.81520 | 34996 ft | 447 kts | 77° |
| 2026-04-24 11:27 | 41.09436 | 47.89573 | 34980 ft | 450 kts | 77° |
| 2026-04-24 11:27 | 41.10888 | 47.97672 | 34977 ft | 452 kts | 73° |
| 2026-04-24 11:28 | 41.13028 | 48.05549 | 34978 ft | 455 kts | 70° |
| 2026-04-24 11:28 | 41.15228 | 48.13448 | 34985 ft | 458 kts | 70° |
| 2026-04-24 11:29 | 41.17421 | 48.21384 | 35019 ft | 458 kts | 70° |
| 2026-04-24 11:29 | 41.19618 | 48.29321 | 35032 ft | 457 kts | 70° |
| 2026-04-24 11:30 | 41.21805 | 48.37233 | 35028 ft | 456 kts | 70° |
| 2026-04-24 11:30 | 41.23981 | 48.45151 | 35040 ft | 455 kts | 70° |
| 2026-04-24 11:31 | 41.26136 | 48.53032 | 35040 ft | 452 kts | 70° |
| 2026-04-24 11:31 | 41.28282 | 48.60875 | 35043 ft | 450 kts | 70° |
| 2026-04-24 11:32 | 41.30410 | 48.68685 | 35041 ft | 448 kts | 70° |
| 2026-04-24 11:32 | 41.32523 | 48.76459 | 35041 ft | 446 kts | 70° |
| 2026-04-24 11:33 | 41.34618 | 48.84213 | 35039 ft | 444 kts | 70° |
| 2026-04-24 11:33 | 41.36703 | 48.91941 | 35035 ft | 443 kts | 70° |
| 2026-04-24 11:34 | 41.38768 | 48.99612 | 35035 ft | 442 kts | 70° |
| 2026-04-24 11:34 | 41.40834 | 49.07322 | 35029 ft | 441 kts | 70° |
| 2026-04-24 11:35 | 41.42893 | 49.15023 | 35027 ft | 441 kts | 70° |
| 2026-04-24 11:35 | 41.44947 | 49.22730 | 35025 ft | 441 kts | 70° |
| 2026-04-24 11:36 | 41.46993 | 49.30427 | 35022 ft | 440 kts | 70° |
| 2026-04-24 11:36 | 41.49037 | 49.38138 | 35021 ft | 440 kts | 70° |
| 2026-04-24 11:37 | 41.51068 | 49.45846 | 35019 ft | 440 kts | 71° |
| 2026-04-24 11:37 | 41.53089 | 49.53557 | 35016 ft | 440 kts | 71° |
| 2026-04-24 11:38 | 41.55114 | 49.61271 | 35016 ft | 440 kts | 71° |
| 2026-04-24 11:38 | 41.57130 | 49.68996 | 35017 ft | 440 kts | 71° |
| 2026-04-24 11:39 | 41.59143 | 49.76726 | 35016 ft | 440 kts | 71° |
| 2026-04-24 11:39 | 41.61152 | 49.84463 | 35016 ft | 441 kts | 71° |
| 2026-04-24 11:40 | 41.63150 | 49.92206 | 35015 ft | 441 kts | 71° |
| 2026-04-24 11:40 | 41.65146 | 49.99946 | 35020 ft | 441 kts | 71° |
| 2026-04-24 11:41 | 41.67145 | 50.07702 | 35020 ft | 441 kts | 71° |
| 2026-04-24 11:41 | 41.69139 | 50.15456 | 35020 ft | 441 kts | 71° |
| 2026-04-24 11:42 | 41.71120 | 50.23220 | 35021 ft | 441 kts | 71° |
| 2026-04-24 11:42 | 41.73097 | 50.30989 | 35021 ft | 441 kts | 71° |
| 2026-04-24 11:43 | 41.75075 | 50.38766 | 35021 ft | 441 kts | 71° |
| 2026-04-24 11:43 | 41.77039 | 50.46548 | 35023 ft | 441 kts | 71° |
| 2026-04-24 11:44 | 41.79004 | 50.54349 | 35023 ft | 441 kts | 71° |
| 2026-04-24 11:44 | 41.80969 | 50.62142 | 35024 ft | 441 kts | 71° |
| 2026-04-24 11:45 | 41.82925 | 50.69932 | 35026 ft | 441 kts | 71° |
| 2026-04-24 11:45 | 41.84873 | 50.77740 | 35026 ft | 441 kts | 71° |
| 2026-04-24 11:46 | 41.86809 | 50.85544 | 35025 ft | 441 kts | 71° |
| 2026-04-24 11:46 | 41.88749 | 50.93357 | 35025 ft | 441 kts | 71° |
| 2026-04-24 11:47 | 41.90683 | 51.01174 | 35024 ft | 441 kts | 71° |
| 2026-04-24 11:47 | 41.92595 | 51.08944 | 35025 ft | 441 kts | 72° |
| 2026-04-24 11:48 | 41.94515 | 51.16774 | 35028 ft | 442 kts | 72° |
| 2026-04-24 11:48 | 41.96441 | 51.24671 | 35028 ft | 442 kts | 72° |
| 2026-04-24 11:49 | 41.98362 | 51.32508 | 35029 ft | 442 kts | 72° |
| 2026-04-24 11:49 | 42.00258 | 51.40305 | 35030 ft | 442 kts | 72° |
| 2026-04-24 11:50 | 42.02570 | 51.47946 | 35027 ft | 441 kts | 59° |
| 2026-04-24 11:50 | 42.05909 | 51.54871 | 35028 ft | 441 kts | 57° |
| 2026-04-24 11:51 | 42.09263 | 51.61790 | 35027 ft | 441 kts | 57° |
| 2026-04-24 11:51 | 42.12063 | 51.67595 | 35027 ft | 441 kts | 57° |
| 2026-04-24 11:52 | 42.15389 | 51.74484 | 35026 ft | 441 kts | 57° |
| 2026-04-24 11:52 | 42.18735 | 51.81411 | 35026 ft | 441 kts | 57° |
| 2026-04-24 11:53 | 42.22068 | 51.88359 | 35026 ft | 441 kts | 57° |
| 2026-04-24 11:53 | 42.25404 | 51.95326 | 35026 ft | 441 kts | 57° |
| 2026-04-24 11:54 | 42.28730 | 52.02301 | 35027 ft | 441 kts | 57° |
| 2026-04-24 11:54 | 42.32063 | 52.09270 | 35028 ft | 442 kts | 57° |
| 2026-04-24 11:55 | 42.35387 | 52.16238 | 35028 ft | 441 kts | 57° |
| 2026-04-24 11:55 | 42.38707 | 52.23240 | 35028 ft | 441 kts | 57° |
| 2026-04-24 11:56 | 42.42016 | 52.30227 | 35027 ft | 441 kts | 57° |
| 2026-04-24 11:56 | 42.45322 | 52.37234 | 35027 ft | 441 kts | 57° |
| 2026-04-24 11:57 | 42.48626 | 52.44239 | 35027 ft | 441 kts | 57° |
| 2026-04-24 11:57 | 42.51932 | 52.51248 | 35027 ft | 441 kts | 57° |
| 2026-04-24 11:58 | 42.55225 | 52.58269 | 35026 ft | 441 kts | 57° |
| 2026-04-24 11:58 | 42.58515 | 52.65306 | 35026 ft | 441 kts | 57° |
| 2026-04-24 11:59 | 42.61799 | 52.72338 | 35026 ft | 441 kts | 58° |
| 2026-04-24 11:59 | 42.65083 | 52.79380 | 35025 ft | 441 kts | 58° |
| 2026-04-24 12:00 | 42.68359 | 52.86425 | 35023 ft | 441 kts | 58° |
| 2026-04-24 12:00 | 42.71634 | 52.93490 | 35021 ft | 441 kts | 58° |
| 2026-04-24 12:01 | 42.74901 | 53.00553 | 35021 ft | 442 kts | 58° |
| 2026-04-24 12:01 | 42.78168 | 53.07648 | 35022 ft | 442 kts | 58° |
| 2026-04-24 12:02 | 42.81436 | 53.14729 | 35022 ft | 442 kts | 58° |
| 2026-04-24 12:02 | 42.84707 | 53.21824 | 35023 ft | 442 kts | 58° |
| 2026-04-24 12:03 | 42.87962 | 53.28920 | 35023 ft | 442 kts | 58° |
| 2026-04-24 12:03 | 42.91207 | 53.36037 | 35023 ft | 442 kts | 58° |
| 2026-04-24 12:04 | 42.94448 | 53.43158 | 35021 ft | 442 kts | 58° |
| 2026-04-24 12:04 | 42.97690 | 53.50279 | 35020 ft | 442 kts | 58° |
| 2026-04-24 12:05 | 43.00628 | 53.57639 | 35018 ft | 442 kts | 70° |
| 2026-04-24 12:05 | 43.01948 | 53.65797 | 35017 ft | 441 kts | 85° |
| 2026-04-24 12:06 | 43.02505 | 53.74151 | 35015 ft | 442 kts | 84° |
| 2026-04-24 12:06 | 43.03080 | 53.82507 | 35013 ft | 442 kts | 84° |
| 2026-04-24 12:07 | 43.03650 | 53.90878 | 35019 ft | 442 kts | 85° |
| 2026-04-24 12:07 | 43.04204 | 53.99243 | 35020 ft | 442 kts | 85° |
| 2026-04-24 12:08 | 43.04748 | 54.07611 | 35021 ft | 442 kts | 85° |
| 2026-04-24 12:08 | 43.05288 | 54.15979 | 35023 ft | 442 kts | 85° |
| 2026-04-24 12:09 | 43.05826 | 54.24341 | 35024 ft | 442 kts | 85° |
| 2026-04-24 12:09 | 43.06358 | 54.32705 | 35025 ft | 442 kts | 85° |
| 2026-04-24 12:10 | 43.06879 | 54.41082 | 35026 ft | 441 kts | 85° |
| 2026-04-24 12:11 | 43.07653 | 54.53620 | 35027 ft | 441 kts | 85° |
| 2026-04-24 12:11 | 43.08165 | 54.61990 | 35027 ft | 441 kts | 85° |
| 2026-04-24 12:12 | 43.08668 | 54.70343 | 35026 ft | 441 kts | 85° |
| 2026-04-24 12:12 | 43.09158 | 54.78705 | 35025 ft | 441 kts | 85° |
| 2026-04-24 12:13 | 43.09643 | 54.87072 | 35023 ft | 441 kts | 85° |
| 2026-04-24 12:13 | 43.10128 | 54.95438 | 35019 ft | 442 kts | 85° |
| 2026-04-24 12:14 | 43.10603 | 55.03827 | 35012 ft | 442 kts | 85° |
| 2026-04-24 12:14 | 43.11077 | 55.12219 | 35015 ft | 443 kts | 85° |
| 2026-04-24 12:15 | 43.11548 | 55.20625 | 35019 ft | 443 kts | 85° |
| 2026-04-24 12:15 | 43.12007 | 55.29035 | 35022 ft | 443 kts | 86° |
| 2026-04-24 12:16 | 43.12459 | 55.37445 | 35025 ft | 443 kts | 86° |
| 2026-04-24 12:16 | 43.12906 | 55.45857 | 35026 ft | 443 kts | 86° |
| 2026-04-24 12:17 | 43.13351 | 55.54264 | 35027 ft | 443 kts | 86° |
| 2026-04-24 12:17 | 43.13792 | 55.62682 | 35028 ft | 443 kts | 86° |
| 2026-04-24 12:18 | 43.14222 | 55.71097 | 35028 ft | 443 kts | 86° |
| 2026-04-24 12:18 | 43.14645 | 55.79523 | 35028 ft | 443 kts | 86° |
| 2026-04-24 12:19 | 43.15058 | 55.87941 | 35029 ft | 443 kts | 86° |
| 2026-04-24 12:19 | 43.15467 | 55.96367 | 35029 ft | 443 kts | 86° |
| 2026-04-24 12:20 | 43.16631 | 56.04633 | 35028 ft | 443 kts | 73° |
| 2026-04-24 12:20 | 43.18359 | 56.12743 | 35028 ft | 443 kts | 74° |
| 2026-04-24 12:21 | 43.20059 | 56.20855 | 35029 ft | 443 kts | 74° |
| 2026-04-24 12:21 | 43.21747 | 56.28936 | 35029 ft | 444 kts | 74° |
| 2026-04-24 12:22 | 43.23446 | 56.37069 | 35031 ft | 444 kts | 74° |
| 2026-04-24 12:22 | 43.25143 | 56.45211 | 35032 ft | 444 kts | 74° |
| 2026-04-24 12:23 | 43.26836 | 56.53351 | 35031 ft | 443 kts | 74° |
| 2026-04-24 12:23 | 43.28522 | 56.61490 | 35031 ft | 443 kts | 74° |
| 2026-04-24 12:24 | 43.30193 | 56.69642 | 35031 ft | 443 kts | 74° |
| 2026-04-24 12:24 | 43.31859 | 56.77787 | 35031 ft | 443 kts | 74° |
| 2026-04-24 12:25 | 43.33524 | 56.85935 | 35031 ft | 443 kts | 74° |
| 2026-04-24 12:25 | 43.35176 | 56.94086 | 35031 ft | 443 kts | 74° |
| 2026-04-24 12:26 | 43.36821 | 57.02247 | 35030 ft | 443 kts | 74° |
| 2026-04-24 12:26 | 43.38472 | 57.10399 | 35029 ft | 443 kts | 74° |
| 2026-04-24 12:27 | 43.40115 | 57.18572 | 35031 ft | 443 kts | 75° |
| 2026-04-24 12:27 | 43.41749 | 57.26737 | 35030 ft | 443 kts | 75° |
| 2026-04-24 12:28 | 43.43372 | 57.34904 | 35031 ft | 442 kts | 75° |
| 2026-04-24 12:28 | 43.44981 | 57.43018 | 35028 ft | 442 kts | 75° |
| 2026-04-24 12:29 | 43.46595 | 57.51178 | 35027 ft | 442 kts | 75° |
| 2026-04-24 12:29 | 43.48204 | 57.59350 | 35027 ft | 442 kts | 75° |
| 2026-04-24 12:30 | 43.49799 | 57.67516 | 35026 ft | 442 kts | 75° |
| 2026-04-24 12:30 | 43.51390 | 57.75684 | 35026 ft | 442 kts | 75° |
| 2026-04-24 12:31 | 43.52722 | 57.82534 | 35025 ft | 442 kts | 75° |
| 2026-04-24 12:31 | 43.54308 | 57.90711 | 35024 ft | 441 kts | 75° |
| 2026-04-24 12:32 | 43.55881 | 57.98896 | 35023 ft | 442 kts | 75° |
| 2026-04-24 12:32 | 43.57440 | 58.07031 | 35023 ft | 442 kts | 75° |
| 2026-04-24 12:33 | 43.59010 | 58.15233 | 35026 ft | 443 kts | 75° |
| 2026-04-24 12:33 | 43.60575 | 58.23448 | 35028 ft | 443 kts | 75° |
| 2026-04-24 12:34 | 43.62136 | 58.31664 | 35029 ft | 443 kts | 75° |
| 2026-04-24 12:34 | 43.63688 | 58.39896 | 35029 ft | 443 kts | 76° |
| 2026-04-24 12:35 | 43.65203 | 58.48132 | 35031 ft | 443 kts | 76° |
| 2026-04-24 12:35 | 43.66704 | 58.56380 | 35032 ft | 443 kts | 76° |
| 2026-04-24 12:36 | 43.68208 | 58.64630 | 35032 ft | 442 kts | 76° |
| 2026-04-24 12:36 | 43.69705 | 58.72871 | 35030 ft | 442 kts | 76° |
| 2026-04-24 12:37 | 43.71188 | 58.81111 | 35029 ft | 442 kts | 76° |
| 2026-04-24 12:37 | 43.72677 | 58.89354 | 35029 ft | 442 kts | 76° |
| 2026-04-24 12:38 | 43.74160 | 58.97598 | 35028 ft | 442 kts | 76° |
| 2026-04-24 12:38 | 43.75630 | 59.05843 | 35026 ft | 441 kts | 76° |
| 2026-04-24 12:39 | 43.78649 | 59.22299 | 35023 ft | 441 kts | 76° |
| 2026-04-24 12:40 | 43.80149 | 59.30532 | 35023 ft | 441 kts | 76° |
| 2026-04-24 12:40 | 43.81634 | 59.38779 | 35024 ft | 442 kts | 76° |
| 2026-04-24 12:41 | 43.83116 | 59.47034 | 35026 ft | 442 kts | 76° |
| 2026-04-24 12:41 | 43.84599 | 59.55293 | 35027 ft | 442 kts | 76° |
| 2026-04-24 12:42 | 43.86071 | 59.63556 | 35028 ft | 442 kts | 76° |
| 2026-04-24 12:42 | 43.87535 | 59.71821 | 35025 ft | 441 kts | 76° |
| 2026-04-24 12:43 | 43.88975 | 59.80092 | 35024 ft | 441 kts | 76° |
| 2026-04-24 12:43 | 43.90391 | 59.88364 | 35024 ft | 441 kts | 77° |
| 2026-04-24 12:44 | 43.91802 | 59.96648 | 35023 ft | 441 kts | 77° |
| 2026-04-24 12:44 | 43.93210 | 60.04932 | 35023 ft | 441 kts | 77° |
| 2026-04-24 12:45 | 43.94615 | 60.13224 | 35024 ft | 442 kts | 77° |
| 2026-04-24 12:45 | 43.96014 | 60.21529 | 35026 ft | 442 kts | 77° |
| 2026-04-24 12:46 | 43.97412 | 60.29825 | 35026 ft | 442 kts | 77° |
| 2026-04-24 12:46 | 43.98810 | 60.38132 | 35026 ft | 442 kts | 77° |
| 2026-04-24 12:47 | 44.00196 | 60.46451 | 35026 ft | 442 kts | 77° |
| 2026-04-24 12:47 | 44.01565 | 60.54780 | 35028 ft | 442 kts | 77° |
| 2026-04-24 12:48 | 44.02933 | 60.63102 | 35030 ft | 442 kts | 77° |
| 2026-04-24 12:48 | 44.04306 | 60.71429 | 35029 ft | 442 kts | 77° |
| 2026-04-24 12:49 | 44.05661 | 60.79716 | 35029 ft | 442 kts | 77° |
| 2026-04-24 12:49 | 44.07019 | 60.88064 | 35032 ft | 442 kts | 77° |
| 2026-04-24 12:50 | 44.08368 | 60.96410 | 35029 ft | 442 kts | 77° |
| 2026-04-24 12:50 | 44.09707 | 61.04749 | 35029 ft | 442 kts | 77° |
| 2026-04-24 12:51 | 44.11039 | 61.13106 | 35031 ft | 442 kts | 77° |
| 2026-04-24 12:51 | 44.12375 | 61.21466 | 35029 ft | 442 kts | 77° |
| 2026-04-24 12:52 | 44.13692 | 61.29828 | 35027 ft | 442 kts | 77° |
| 2026-04-24 12:52 | 44.14398 | 61.38297 | 35024 ft | 441 kts | 86° |
| 2026-04-24 12:53 | 44.14770 | 61.46821 | 35023 ft | 441 kts | 86° |
| 2026-04-24 12:53 | 44.15142 | 61.55362 | 35023 ft | 441 kts | 86° |
| 2026-04-24 12:54 | 44.15510 | 61.63886 | 35022 ft | 441 kts | 86° |
| 2026-04-24 12:54 | 44.15875 | 61.72422 | 35023 ft | 441 kts | 86° |
| 2026-04-24 12:55 | 44.16235 | 61.80968 | 35023 ft | 441 kts | 86° |
| 2026-04-24 12:55 | 44.16581 | 61.89505 | 35023 ft | 441 kts | 86° |
| 2026-04-24 12:56 | 44.16926 | 61.98046 | 35024 ft | 442 kts | 86° |
| 2026-04-24 12:56 | 44.17265 | 62.06546 | 35027 ft | 442 kts | 87° |
| 2026-04-24 12:57 | 44.17597 | 62.15100 | 35028 ft | 442 kts | 87° |
| 2026-04-24 12:57 | 44.17922 | 62.23658 | 35029 ft | 442 kts | 87° |
| 2026-04-24 12:58 | 44.18235 | 62.32211 | 35030 ft | 442 kts | 87° |
| 2026-04-24 12:58 | 44.18538 | 62.40765 | 35027 ft | 442 kts | 87° |
| 2026-04-24 12:59 | 44.18830 | 62.49312 | 35026 ft | 442 kts | 87° |
| 2026-04-24 12:59 | 44.19119 | 62.57868 | 35025 ft | 441 kts | 87° |
| 2026-04-24 13:00 | 44.19404 | 62.66424 | 35024 ft | 441 kts | 87° |
| 2026-04-24 13:00 | 44.19676 | 62.74967 | 35025 ft | 442 kts | 88° |
| 2026-04-24 13:01 | 44.19935 | 62.83530 | 35025 ft | 442 kts | 88° |
| 2026-04-24 13:01 | 44.20195 | 62.92083 | 35025 ft | 442 kts | 88° |
| 2026-04-24 13:02 | 44.20456 | 63.00638 | 35025 ft | 442 kts | 88° |
| 2026-04-24 13:02 | 44.20706 | 63.09187 | 35025 ft | 442 kts | 88° |
| 2026-04-24 13:03 | 44.20945 | 63.17748 | 35026 ft | 442 kts | 88° |
| 2026-04-24 13:03 | 44.21099 | 63.26321 | 35027 ft | 442 kts | 89° |
| 2026-04-24 13:04 | 44.21172 | 63.34829 | 35028 ft | 442 kts | 89° |
| 2026-04-24 13:04 | 44.21255 | 63.43363 | 35028 ft | 442 kts | 89° |
| 2026-04-24 13:05 | 44.21349 | 63.51928 | 35027 ft | 442 kts | 89° |
| 2026-04-24 13:05 | 44.21442 | 63.60498 | 35028 ft | 442 kts | 89° |
| 2026-04-24 13:06 | 44.21531 | 63.69070 | 35028 ft | 442 kts | 89° |
| 2026-04-24 13:06 | 44.21613 | 63.77643 | 35028 ft | 442 kts | 89° |
| 2026-04-24 13:07 | 44.21677 | 63.86218 | 35029 ft | 442 kts | 89° |
| 2026-04-24 13:07 | 44.21733 | 63.94782 | 35028 ft | 442 kts | 89° |
| 2026-04-24 13:08 | 44.21792 | 64.03363 | 35029 ft | 442 kts | 89° |
| 2026-04-24 13:08 | 44.21836 | 64.11946 | 35029 ft | 442 kts | 89° |
| 2026-04-24 13:09 | 44.22083 | 64.24808 | 35029 ft | 442 kts | 86° |
| 2026-04-24 13:09 | 44.22552 | 64.33349 | 35028 ft | 442 kts | 85° |
| 2026-04-24 13:10 | 44.23016 | 64.41896 | 35028 ft | 442 kts | 86° |
| 2026-04-24 13:10 | 44.23347 | 64.49013 | 35028 ft | 442 kts | 86° |
| 2026-04-24 13:11 | 44.23706 | 64.57577 | 35028 ft | 442 kts | 86° |
| 2026-04-24 13:11 | 44.24066 | 64.66147 | 35028 ft | 442 kts | 86° |
| 2026-04-24 13:12 | 44.24430 | 64.74704 | 35026 ft | 442 kts | 86° |
| 2026-04-24 13:12 | 44.24785 | 64.83261 | 35025 ft | 442 kts | 86° |
| 2026-04-24 13:13 | 44.25113 | 64.91816 | 35024 ft | 442 kts | 87° |
| 2026-04-24 13:13 | 44.25424 | 65.00375 | 35023 ft | 442 kts | 87° |
| 2026-04-24 13:14 | 44.25738 | 65.08934 | 35021 ft | 441 kts | 87° |
| 2026-04-24 13:14 | 44.26043 | 65.17487 | 35020 ft | 441 kts | 87° |
| 2026-04-24 13:15 | 44.26345 | 65.26045 | 35019 ft | 442 kts | 87° |
| 2026-04-24 13:15 | 44.26638 | 65.34605 | 35020 ft | 442 kts | 87° |
| 2026-04-24 13:16 | 44.26922 | 65.43171 | 35021 ft | 442 kts | 87° |
| 2026-04-24 13:16 | 44.27202 | 65.51734 | 35022 ft | 442 kts | 87° |
| 2026-04-24 13:17 | 44.27474 | 65.60301 | 35022 ft | 442 kts | 87° |
| 2026-04-24 13:17 | 44.27740 | 65.68874 | 35023 ft | 442 kts | 88° |
| 2026-04-24 13:18 | 44.28000 | 65.77449 | 35024 ft | 442 kts | 88° |
| 2026-04-24 13:18 | 44.28259 | 65.86023 | 35026 ft | 442 kts | 88° |
| 2026-04-24 13:19 | 44.28509 | 65.94604 | 35027 ft | 442 kts | 88° |
| 2026-04-24 13:19 | 44.28752 | 66.03182 | 35027 ft | 442 kts | 88° |
| 2026-04-24 13:20 | 44.28992 | 66.11760 | 35026 ft | 442 kts | 88° |
| 2026-04-24 13:20 | 44.29221 | 66.20284 | 35025 ft | 442 kts | 88° |
| 2026-04-24 13:21 | 44.29438 | 66.28852 | 35024 ft | 442 kts | 88° |
| 2026-04-24 13:21 | 44.29652 | 66.37430 | 35023 ft | 442 kts | 88° |
| 2026-04-24 13:22 | 44.29849 | 66.46001 | 35021 ft | 442 kts | 89° |
| 2026-04-24 13:22 | 44.29932 | 66.54581 | 35021 ft | 442 kts | 90° |
| 2026-04-24 13:23 | 44.29965 | 66.63154 | 35021 ft | 442 kts | 90° |
| 2026-04-24 13:23 | 44.30013 | 66.71730 | 35021 ft | 442 kts | 89° |
| 2026-04-24 13:24 | 44.30071 | 66.80314 | 35022 ft | 442 kts | 89° |
| 2026-04-24 13:24 | 44.30117 | 66.88904 | 35023 ft | 442 kts | 89° |
| 2026-04-24 13:25 | 44.30156 | 66.97479 | 35023 ft | 442 kts | 90° |
| 2026-04-24 13:25 | 44.30186 | 67.06062 | 35023 ft | 442 kts | 90° |
| 2026-04-24 13:26 | 44.30213 | 67.14647 | 35023 ft | 442 kts | 90° |
| 2026-04-24 13:26 | 44.30235 | 67.23257 | 35023 ft | 443 kts | 90° |
| 2026-04-24 13:27 | 44.30251 | 67.31853 | 35023 ft | 443 kts | 90° |
| 2026-04-24 13:27 | 44.30260 | 67.40463 | 35021 ft | 444 kts | 90° |
| 2026-04-24 13:28 | 44.30258 | 67.49080 | 35019 ft | 444 kts | 90° |
| 2026-04-24 13:28 | 44.30375 | 67.57695 | 35015 ft | 444 kts | 86° |
| 2026-04-24 13:29 | 44.30873 | 67.66305 | 35011 ft | 445 kts | 84° |
| 2026-04-24 13:29 | 44.31460 | 67.74920 | 35015 ft | 445 kts | 85° |
| 2026-04-24 13:30 | 44.31953 | 67.83479 | 35028 ft | 445 kts | 86° |
| 2026-04-24 13:30 | 44.32384 | 67.92148 | 35031 ft | 444 kts | 86° |
| 2026-04-24 13:31 | 44.32806 | 68.00688 | 35030 ft | 444 kts | 86° |
| 2026-04-24 13:31 | 44.33239 | 68.09335 | 35029 ft | 443 kts | 86° |
| 2026-04-24 13:32 | 44.33671 | 68.17922 | 35027 ft | 443 kts | 86° |
| 2026-04-24 13:32 | 44.34097 | 68.26511 | 35026 ft | 443 kts | 86° |
| 2026-04-24 13:33 | 44.34506 | 68.35038 | 35025 ft | 443 kts | 86° |
| 2026-04-24 13:33 | 44.34912 | 68.43623 | 35024 ft | 442 kts | 86° |
| 2026-04-24 13:34 | 44.35318 | 68.52197 | 35024 ft | 442 kts | 86° |
| 2026-04-24 13:34 | 44.35718 | 68.60783 | 35024 ft | 442 kts | 86° |
| 2026-04-24 13:35 | 44.36105 | 68.69367 | 35024 ft | 443 kts | 86° |
| 2026-04-24 13:35 | 44.36481 | 68.77965 | 35024 ft | 443 kts | 86° |
| 2026-04-24 13:36 | 44.36852 | 68.86552 | 35025 ft | 443 kts | 86° |
| 2026-04-24 13:36 | 44.36615 | 68.95123 | 35023 ft | 443 kts | 99° |
| 2026-04-24 13:37 | 44.35601 | 69.03612 | 35023 ft | 443 kts | 99° |
| 2026-04-24 13:37 | 44.34589 | 69.12112 | 35021 ft | 443 kts | 99° |
| 2026-04-24 13:38 | 44.33570 | 69.20604 | 35019 ft | 443 kts | 99° |
| 2026-04-24 13:38 | 44.32541 | 69.29087 | 35022 ft | 443 kts | 99° |
| 2026-04-24 13:39 | 44.31505 | 69.37571 | 35021 ft | 443 kts | 99° |
| 2026-04-24 13:39 | 44.30467 | 69.46051 | 35020 ft | 443 kts | 99° |
| 2026-04-24 13:40 | 44.29433 | 69.54486 | 35024 ft | 443 kts | 99° |
| 2026-04-24 13:40 | 44.28377 | 69.62962 | 35020 ft | 443 kts | 100° |
| 2026-04-24 13:41 | 44.27312 | 69.71436 | 35021 ft | 443 kts | 100° |
| 2026-04-24 13:41 | 44.26251 | 69.79923 | 35023 ft | 444 kts | 100° |
| 2026-04-24 13:42 | 44.25181 | 69.88394 | 35025 ft | 444 kts | 100° |
| 2026-04-24 13:42 | 44.24106 | 69.96873 | 35026 ft | 444 kts | 100° |
| 2026-04-24 13:43 | 44.23022 | 70.05347 | 35026 ft | 444 kts | 100° |
| 2026-04-24 13:43 | 44.21928 | 70.13800 | 35026 ft | 443 kts | 100° |
| 2026-04-24 13:44 | 44.20825 | 70.22267 | 35027 ft | 443 kts | 100° |
| 2026-04-24 13:44 | 44.19729 | 70.30724 | 35026 ft | 443 kts | 100° |
| 2026-04-24 13:45 | 44.18621 | 70.39171 | 35025 ft | 443 kts | 100° |
| 2026-04-24 13:45 | 44.17509 | 70.47620 | 35023 ft | 443 kts | 100° |
| 2026-04-24 13:46 | 44.16394 | 70.56066 | 35023 ft | 443 kts | 100° |
| 2026-04-24 13:46 | 44.15273 | 70.64516 | 35022 ft | 443 kts | 100° |
| 2026-04-24 13:47 | 44.14150 | 70.72943 | 35021 ft | 443 kts | 100° |
| 2026-04-24 13:47 | 44.13019 | 70.81383 | 35023 ft | 443 kts | 101° |
| 2026-04-24 13:48 | 44.11877 | 70.89817 | 35019 ft | 443 kts | 101° |
| 2026-04-24 13:48 | 44.10728 | 70.98246 | 35018 ft | 443 kts | 101° |
| 2026-04-24 13:49 | 44.09585 | 71.06670 | 35017 ft | 443 kts | 101° |
| 2026-04-24 13:49 | 44.08438 | 71.15080 | 35016 ft | 443 kts | 101° |
| 2026-04-24 13:50 | 44.07285 | 71.23453 | 35015 ft | 443 kts | 101° |
| 2026-04-24 13:50 | 44.06114 | 71.31868 | 35017 ft | 443 kts | 101° |
| 2026-04-24 13:51 | 44.05130 | 71.38905 | 35015 ft | 443 kts | 101° |
| 2026-04-24 13:51 | 44.03957 | 71.47306 | 35015 ft | 443 kts | 101° |
| 2026-04-24 13:52 | 44.02778 | 71.55714 | 35012 ft | 443 kts | 101° |
| 2026-04-24 13:52 | 44.01588 | 71.64070 | 35016 ft | 443 kts | 101° |
| 2026-04-24 13:53 | 44.00397 | 71.72466 | 35016 ft | 443 kts | 101° |
| 2026-04-24 13:53 | 43.99198 | 71.80870 | 35019 ft | 443 kts | 101° |
| 2026-04-24 13:54 | 43.98106 | 71.89288 | 35018 ft | 443 kts | 94° |
| 2026-04-24 13:54 | 43.97698 | 71.97822 | 35012 ft | 443 kts | 94° |
| 2026-04-24 13:55 | 43.97270 | 72.06354 | 35021 ft | 443 kts | 94° |
| 2026-04-24 13:55 | 43.96841 | 72.14894 | 35017 ft | 443 kts | 94° |
| 2026-04-24 13:56 | 43.96407 | 72.23431 | 35016 ft | 444 kts | 94° |
| 2026-04-24 13:56 | 43.95962 | 72.31981 | 35017 ft | 444 kts | 94° |
| 2026-04-24 13:57 | 43.95517 | 72.40523 | 35018 ft | 444 kts | 94° |
| 2026-04-24 13:57 | 43.95065 | 72.49061 | 35020 ft | 444 kts | 94° |
| 2026-04-24 13:58 | 43.94597 | 72.57597 | 35021 ft | 444 kts | 94° |
| 2026-04-24 13:58 | 43.94119 | 72.66152 | 35022 ft | 444 kts | 94° |
| 2026-04-24 13:59 | 43.93645 | 72.74686 | 35023 ft | 444 kts | 94° |
| 2026-04-24 13:59 | 43.93171 | 72.83229 | 35024 ft | 444 kts | 94° |
| 2026-04-24 14:00 | 43.92682 | 72.91777 | 35025 ft | 444 kts | 95° |
| 2026-04-24 14:00 | 43.92186 | 73.00320 | 35025 ft | 444 kts | 95° |
| 2026-04-24 14:01 | 43.91683 | 73.08861 | 35026 ft | 444 kts | 95° |
| 2026-04-24 14:01 | 43.91176 | 73.17399 | 35027 ft | 444 kts | 95° |
| 2026-04-24 14:02 | 43.90667 | 73.25944 | 35028 ft | 445 kts | 95° |
| 2026-04-24 14:02 | 43.90147 | 73.34486 | 35029 ft | 445 kts | 95° |
| 2026-04-24 14:03 | 43.89621 | 73.43023 | 35028 ft | 444 kts | 95° |
| 2026-04-24 14:03 | 43.89089 | 73.51559 | 35027 ft | 444 kts | 95° |
| 2026-04-24 14:04 | 43.88555 | 73.60055 | 35028 ft | 444 kts | 95° |
| 2026-04-24 14:04 | 43.88007 | 73.68586 | 35028 ft | 444 kts | 95° |
| 2026-04-24 14:05 | 43.87455 | 73.77134 | 35028 ft | 445 kts | 95° |
| 2026-04-24 14:05 | 43.86894 | 73.85667 | 35028 ft | 445 kts | 95° |
| 2026-04-24 14:06 | 43.86334 | 73.94195 | 35028 ft | 445 kts | 95° |
| 2026-04-24 14:06 | 43.85762 | 74.02735 | 35027 ft | 445 kts | 95° |
| 2026-04-24 14:07 | 43.85176 | 74.11288 | 35024 ft | 445 kts | 95° |
| 2026-04-24 14:07 | 43.84593 | 74.19809 | 35021 ft | 445 kts | 95° |
| 2026-04-24 14:08 | 43.84004 | 74.28338 | 35020 ft | 445 kts | 95° |
| 2026-04-24 14:08 | 43.82898 | 74.36776 | 35017 ft | 445 kts | 103° |
| 2026-04-24 14:09 | 43.81542 | 74.45148 | 35016 ft | 446 kts | 102° |
| 2026-04-24 14:09 | 43.80188 | 74.53531 | 35020 ft | 447 kts | 102° |
| 2026-04-24 14:10 | 43.78838 | 74.61876 | 35020 ft | 447 kts | 103° |
| 2026-04-24 14:10 | 43.77466 | 74.70292 | 35017 ft | 448 kts | 103° |
| 2026-04-24 14:11 | 43.76078 | 74.78709 | 35021 ft | 448 kts | 103° |
| 2026-04-24 14:12 | 43.73995 | 74.91328 | 35024 ft | 449 kts | 103° |
| 2026-04-24 14:12 | 43.72598 | 74.99741 | 35027 ft | 449 kts | 103° |
| 2026-04-24 14:13 | 43.71190 | 75.08151 | 35029 ft | 449 kts | 103° |
| 2026-04-24 14:13 | 43.69784 | 75.16547 | 35032 ft | 448 kts | 103° |
| 2026-04-24 14:14 | 43.68375 | 75.24934 | 35032 ft | 448 kts | 103° |
| 2026-04-24 14:14 | 43.66251 | 75.37497 | 35033 ft | 447 kts | 103° |
| 2026-04-24 14:15 | 43.65535 | 75.41701 | 34645 ft | 449 kts | 103° |
| 2026-04-24 14:15 | 43.64813 | 75.45918 | 33587 ft | 454 kts | 103° |
| 2026-04-24 14:15 | 43.64081 | 75.50169 | 32420 ft | 458 kts | 103° |
| 2026-04-24 14:15 | 43.63543 | 75.54506 | 31257 ft | 460 kts | 95° |
| 2026-04-24 14:16 | 43.63346 | 75.58858 | 30211 ft | 459 kts | 93° |
| 2026-04-24 14:16 | 43.63168 | 75.63323 | 29042 ft | 460 kts | 93° |
| 2026-04-24 14:16 | 43.62984 | 75.67745 | 27826 ft | 462 kts | 93° |
| 2026-04-24 14:17 | 43.62617 | 75.76265 | 27123 ft | 426 kts | 93° |
| 2026-04-24 14:17 | 43.62440 | 75.80284 | 26625 ft | 415 kts | 94° |
| 2026-04-24 14:17 | 43.62084 | 75.88105 | 25241 ft | 403 kts | 94° |
| 2026-04-24 14:18 | 43.61907 | 75.91949 | 24529 ft | 398 kts | 94° |
| 2026-04-24 14:18 | 43.61735 | 75.95740 | 23835 ft | 394 kts | 94° |
| 2026-04-24 14:18 | 43.61563 | 75.99504 | 23156 ft | 390 kts | 94° |
| 2026-04-24 14:18 | 43.61391 | 76.03216 | 22496 ft | 386 kts | 94° |
| 2026-04-24 14:19 | 43.61275 | 76.05707 | 22056 ft | 384 kts | 94° |
| 2026-04-24 14:19 | 43.61054 | 76.10535 | 21183 ft | 378 kts | 94° |
| 2026-04-24 14:19 | 43.60890 | 76.14142 | 20514 ft | 374 kts | 94° |
| 2026-04-24 14:19 | 43.60725 | 76.17710 | 19840 ft | 371 kts | 94° |
| 2026-04-24 14:20 | 43.60556 | 76.21238 | 19161 ft | 367 kts | 94° |
| 2026-04-24 14:20 | 43.60380 | 76.24729 | 18477 ft | 363 kts | 96° |
| 2026-04-24 14:20 | 43.59860 | 76.28105 | 17788 ft | 359 kts | 109° |
| 2026-04-24 14:20 | 43.58785 | 76.31178 | 17102 ft | 355 kts | 123° |
| 2026-04-24 14:21 | 43.57230 | 76.33788 | 16406 ft | 351 kts | 137° |
| 2026-04-24 14:21 | 43.55304 | 76.35809 | 15714 ft | 347 kts | 150° |
| 2026-04-24 14:21 | 43.53158 | 76.37320 | 15001 ft | 344 kts | 154° |
| 2026-04-24 14:21 | 43.51018 | 76.38778 | 14303 ft | 341 kts | 154° |
| 2026-04-24 14:22 | 43.48904 | 76.40225 | 13614 ft | 338 kts | 153° |
| 2026-04-24 14:22 | 43.46810 | 76.41663 | 13012 ft | 333 kts | 153° |
| 2026-04-24 14:22 | 43.42896 | 76.44361 | 12564 ft | 302 kts | 153° |
| 2026-04-24 14:23 | 43.41049 | 76.45694 | 12070 ft | 298 kts | 147° |
| 2026-04-24 14:23 | 43.39436 | 76.47446 | 11511 ft | 296 kts | 136° |
| 2026-04-24 14:23 | 43.37961 | 76.49390 | 11027 ft | 292 kts | 136° |
| 2026-04-24 14:23 | 43.36494 | 76.51319 | 10508 ft | 290 kts | 136° |
| 2026-04-24 14:24 | 43.35039 | 76.53225 | 9984 ft | 288 kts | 136° |
| 2026-04-24 14:24 | 43.33590 | 76.55119 | 9488 ft | 286 kts | 136° |
| 2026-04-24 14:24 | 43.32148 | 76.56996 | 8973 ft | 284 kts | 136° |
| 2026-04-24 14:24 | 43.30726 | 76.58857 | 8499 ft | 281 kts | 136° |
| 2026-04-24 14:25 | 43.29797 | 76.60076 | 8248 ft | 276 kts | 136° |
| 2026-04-24 14:25 | 43.28005 | 76.62419 | 7985 ft | 259 kts | 136° |
| 2026-04-24 14:25 | 43.26859 | 76.64266 | 7732 ft | 250 kts | 121° |
| 2026-04-24 14:25 | 43.26107 | 76.66434 | 7606 ft | 253 kts | 107° |
| 2026-04-24 14:26 | 43.25682 | 76.68773 | 7299 ft | 251 kts | 103° |
| 2026-04-24 14:26 | 43.25301 | 76.71075 | 6972 ft | 245 kts | 103° |
| 2026-04-24 14:26 | 43.24929 | 76.73328 | 6625 ft | 240 kts | 103° |
| 2026-04-24 14:26 | 43.24567 | 76.75526 | 6274 ft | 233 kts | 103° |
| 2026-04-24 14:27 | 43.24212 | 76.77673 | 5896 ft | 228 kts | 103° |
| 2026-04-24 14:27 | 43.23983 | 76.79796 | 5514 ft | 224 kts | 88° |
| 2026-04-24 14:27 | 43.24305 | 76.81854 | 5137 ft | 220 kts | 66° |
| 2026-04-24 14:27 | 43.25098 | 76.83634 | 4775 ft | 216 kts | 55° |
| 2026-04-24 14:28 | 43.25943 | 76.85317 | 4474 ft | 212 kts | 55° |
| 2026-04-24 14:28 | 43.26785 | 76.87000 | 4484 ft | 215 kts | 55° |
| 2026-04-24 14:28 | 43.27637 | 76.88706 | 4416 ft | 217 kts | 56° |
| 2026-04-24 14:28 | 43.28457 | 76.90352 | 4202 ft | 199 kts | 56° |
| 2026-04-24 14:29 | 43.29191 | 76.91827 | 3967 ft | 175 kts | 56° |
| 2026-04-24 14:29 | 43.29838 | 76.93126 | 3735 ft | 158 kts | 56° |
| 2026-04-24 14:29 | 43.30437 | 76.94330 | 3531 ft | 152 kts | 56° |
| 2026-04-24 14:29 | 43.31030 | 76.95521 | 3331 ft | 150 kts | 56° |
| 2026-04-24 14:30 | 43.31427 | 76.96317 | 3186 ft | 149 kts | 56° |
| 2026-04-24 14:30 | 43.32202 | 76.97865 | 2918 ft | 148 kts | 55° |
| 2026-04-24 14:30 | 43.32781 | 76.99028 | 2748 ft | 148 kts | 56° |
| 2026-04-24 14:30 | 43.33359 | 77.00195 | 2547 ft | 147 kts | 56° |
| 2026-04-24 14:31 | 43.33931 | 77.01360 | 2350 ft | 147 kts | 55° |
| 2026-04-24 14:31 | 43.34505 | 77.02491 | 2235 ft | 134 kts | 54° |
| 2026-04-24 14:31 | 43.34806 | 77.03109 | 2225 ft | 88 kts | 57° |
| 2026-04-24 14:31 | 43.34984 | 77.03480 | 2226 ft | 15 kts | 56° |
| 2026-04-24 14:32 | 43.35046 | 77.03604 | 2229 ft | 16 kts | 56° |
| 2026-04-24 14:32 | 43.35118 | 77.03748 | 2225 ft | 20 kts | 53° |
| 2026-04-24 14:32 | 43.35220 | 77.03894 | 2225 ft | 22 kts | 36° |
| 2026-04-24 14:32 | 43.35361 | 77.03993 | 2223 ft | 21 kts | 24° |
| 2026-04-24 14:33 | 43.35447 | 77.03983 | 2224 ft | 9 kts | 291° |
| 2026-04-24 14:33 | 43.35420 | 77.03887 | 2223 ft | 13 kts | 237° |
| 2026-04-24 14:33 | 43.35366 | 77.03780 | 2225 ft | 14 kts | 234° |
| 2026-04-24 14:33 | 43.35307 | 77.03667 | 2226 ft | 15 kts | 234° |
| 2026-04-24 14:34 | 43.35242 | 77.03542 | 2225 ft | 16 kts | 235° |
| 2026-04-24 14:34 | 43.35178 | 77.03410 | 2225 ft | 17 kts | 237° |
| 2026-04-24 14:34 | 43.35107 | 77.03263 | 2226 ft | 19 kts | 235° |
| 2026-04-24 14:34 | 43.35027 | 77.03109 | 2225 ft | 21 kts | 236° |
| 2026-04-24 14:35 | 43.34939 | 77.02932 | 2224 ft | 23 kts | 236° |
| 2026-04-24 14:35 | 43.34846 | 77.02744 | 2223 ft | 24 kts | 236° |
| 2026-04-24 14:35 | 43.34773 | 77.02562 | 2227 ft | 20 kts | 257° |
| 2026-04-24 14:35 | 43.34777 | 77.02370 | 2227 ft | 21 kts | 275° |
| 2026-04-24 14:36 | 43.34789 | 77.02175 | 2228 ft | 19 kts | 274° |
| 2026-04-24 14:36 | 43.34798 | 77.01987 | 2229 ft | 20 kts | 273° |
| 2026-04-24 14:36 | 43.34806 | 77.01787 | 2229 ft | 22 kts | 274° |
| 2026-04-24 14:36 | 43.34815 | 77.01605 | 2227 ft | 15 kts | 274° |
| 2026-04-24 14:37 | 43.34849 | 77.01514 | 2226 ft | 12 kts | 336° |
| 2026-04-24 14:37 | 43.34899 | 77.01436 | 2228 ft | 12 kts | 262° |
| 2026-04-24 14:37 | 43.34880 | 77.01370 | 2225 ft | 1 kts | 246° |
| 2026-04-24 14:37 | 43.34878 | 77.01364 | 2225 ft | 0 kts | 246° |